Aérodrome :
LOGIN :

S'inscrire | Disclaimer

   EN    FR    IT 

 










Légende :    VFR   VFR Marginal   IFR   IFR Intensif   IFR Très Intensif
Visi : 
Plafond : 
>= 8 km
>= 3000ft
5 à 8 km
1000 à 3000 ft
1500m à 5 km
500 à 1000 ft
800 à 1500m
200 à 500 ft
< 800m
< 200 ft
Symboles :   Orages  Brouillard  Fortes neiges  Fortes précipitations  Vent > 20 kt
SIGMETs :   Divers  Orages  Givrage  Turbulence  Onde Orograph.  Cendres Volcan.






- Altitude de l'aérodrome : 161 ft


LRTZ - Tuzla Romania

DERNIER METAR :
  • 190500Z 01008KT 7000 BKN050 BKN150 06/04 Q1020 WHT WHT

METARs EXPIRÉS :
  • 190400Z 03006KT 8000 FEW050 BKN150 06/04 Q1020 BLU BLU

TAF TAF LRTZ
Valide du 19 à 06h jusqu'au 20 à 06h UTC


190500Z 1906/2006 01012KT 7000 BKN040 BKN150
PROB30
TEMPO 1908/1910 -RA SCT035 BKN080
BECMG 1910/1912 9999 BKN100 BKN200
TEMPO 1923/2002 5000 BR BKN008 OVC020



MET'MAP, la Météo Aéronautique d'un coup d'oeil ! - Copyright ORBIFLY Décembre 2007 - Disclaimer

ORBIFLY MET'MAP TEAM :

Programmation & Développement : Alexandra Zaïnal
Sur une idée originale de : Baudouin d'Aumeries
Assistance à la programmation : Marc-Olivier Méhu
Soutien technique & logistique : Manuel Goepfert

Contact : metmap@orbifly.com




SOURCES & CREDITS :

   NOAA